Aeroporto :
LOGIN :

Iscrizione | Disclaimer

   EN    FR    IT 

 










Sommario :    VFR   VFR Marginale   IFR   IFR Intensivo   IFR Molto Intensivo
Visibilità : 
Base nubi : 
>= 8 km
>= 3000ft
5 / 8 km
1000 / 3000 ft
1500m / 5 km
500 / 1000 ft
800 / 1500m
200 / 500 ft
< 800m
< 200 ft
Simboli :   Temporali  Nebbia  Neve Forte  Precipitazioni Forti  Vento > 20 kt
SIGMETs :   Varie  Temporali  Ghiacco  Turbolenza  Onda orograficha  Ceneri Vulcaniche







- Altitudine del aeroporto : 465 ft
- Codice IATA : OMR


LROD - Oradea International

ULTIMO METAR :
  • 251600Z 03005KT 360V080 CAVOK 30/19 Q1023

METARs OBSOLETI :
  • 251530Z 04006KT 360V090 CAVOK 31/19 Q1023
  • 251500Z 03005KT 330V110 CAVOK 30/20 Q1023
  • 251430Z 07006KT CAVOK 31/19 Q1023
  • 251400Z 09006KT 040V120 9999 FEW043TCU 31/19 Q1023
  • 251330Z 07006KT 030V130 9999 FEW043TCU 31/17 Q1023

TAF TAF LROD
Valido dal 25 a 15 ore il 26 a 00 ore UTC


251400Z 2515/2524 06010KT CAVOK
Nessun NOTAM noto per questo aeroporto.



MetMap, La meteo Aeronautica in un colpo d'occhio ! - Copyright ORBIFLY Dicembre 2007 - Disclaimer

ORBIFLY MET'MAP TEAM :

Programmazione e sviluppo : Alexandra Zaïnal
Concezione e sviluppo : Baudouin d'Aumeries
Co-Programmazione e sviluppo : Marc-Olivier Méhu
Supporto tecnico e logistico : Manuel Goepfert
Aiuto per la traduzione : Arnaldo La Scala

Contatto : metmap@orbifly.com




FONTI E CREDITI :

   NOAA